createdAt,value
2018-12-19T00:01:23.541Z,11.80
2018-12-19T00:03:51.678Z,11.17
2018-12-19T00:06:19.787Z,11.93
2018-12-19T00:08:48.148Z,12.17
2018-12-19T00:11:16.269Z,11.77
2018-12-19T00:13:44.408Z,12.97
2018-12-19T00:16:12.562Z,14.23
2018-12-19T00:18:40.678Z,15.00
2018-12-19T00:21:08.862Z,12.53
2018-12-19T00:23:37.004Z,13.33
2018-12-19T00:26:05.123Z,13.57
2018-12-19T00:28:33.348Z,11.00
2018-12-19T00:31:01.401Z,12.83
2018-12-19T00:33:29.627Z,13.40
2018-12-19T00:35:57.777Z,13.23
2018-12-19T00:38:25.915Z,13.33
2018-12-19T00:40:54.155Z,12.87
2018-12-19T00:43:22.293Z,11.47
2018-12-19T00:45:50.337Z,11.93
2018-12-19T00:48:18.466Z,14.70
2018-12-19T00:50:46.603Z,13.10
2018-12-19T00:53:14.703Z,14.03
2018-12-19T00:55:42.817Z,12.17
2018-12-19T00:58:10.962Z,12.87
2018-12-19T01:00:39.013Z,13.23
2018-12-19T01:03:07.713Z,12.33
2018-12-19T01:05:35.839Z,13.43
2018-12-19T01:08:03.913Z,13.13
2018-12-19T01:10:31.990Z,13.03
2018-12-19T01:13:00.091Z,11.70
2018-12-19T01:15:28.241Z,11.97
2018-12-19T01:17:56.397Z,13.28
2018-12-19T01:20:24.887Z,12.70
2018-12-19T01:22:53.010Z,12.80
2018-12-19T01:25:21.352Z,12.55
2018-12-19T01:27:49.450Z,13.45
2018-12-19T01:30:17.585Z,12.90
2018-12-19T01:32:45.663Z,12.15
2018-12-19T01:35:13.931Z,12.37
2018-12-19T01:37:41.984Z,12.57
2018-12-19T01:40:10.144Z,11.70
2018-12-19T01:42:38.416Z,11.83
2018-12-19T01:45:07.237Z,12.07
2018-12-19T01:47:35.269Z,11.53
2018-12-19T01:50:04.497Z,12.30
2018-12-19T01:52:32.579Z,12.13
2018-12-19T01:55:00.716Z,11.80
2018-12-19T01:57:28.835Z,10.90
2018-12-19T01:59:56.978Z,11.60
2018-12-19T02:02:25.229Z,12.30
2018-12-19T02:04:53.351Z,11.27
2018-12-19T02:07:21.715Z,11.60
2018-12-19T02:09:49.783Z,11.27
2018-12-19T02:12:17.868Z,10.97
2018-12-19T02:14:46.023Z,11.47
2018-12-19T02:17:14.155Z,11.90
2018-12-19T02:19:43.011Z,12.50
2018-12-19T02:22:11.072Z,11.47
2018-12-19T02:24:39.166Z,11.07
2018-12-19T02:27:07.320Z,12.03
2018-12-19T02:29:35.453Z,10.83
2018-12-19T02:32:08.101Z,10.97
2018-12-19T02:34:36.557Z,12.00
2018-12-19T02:37:04.715Z,10.73
2018-12-19T02:39:42.186Z,11.50
2018-12-19T02:42:10.348Z,11.87
2018-12-19T02:44:38.342Z,11.10
2018-12-19T02:47:06.345Z,12.33
2018-12-19T02:49:39.665Z,10.20
2018-12-19T02:52:07.465Z,11.20
2018-12-19T02:54:35.495Z,11.00
2018-12-19T02:57:04.577Z,12.23
2018-12-19T02:59:32.744Z,11.03
2018-12-19T03:02:00.864Z,12.43
2018-12-19T03:04:28.946Z,11.30
2018-12-19T03:06:57.045Z,12.07
2018-12-19T03:09:25.310Z,12.10
2018-12-19T03:11:53.479Z,12.03
2018-12-19T03:14:22.568Z,11.80
2018-12-19T03:16:50.693Z,13.00
2018-12-19T03:19:19.061Z,12.70
2018-12-19T03:21:47.200Z,15.33
2018-12-19T03:24:15.412Z,11.40
2018-12-19T03:26:43.452Z,11.90
2018-12-19T03:29:16.589Z,12.07
2018-12-19T03:31:44.689Z,11.60
2018-12-19T03:34:12.750Z,11.87
2018-12-19T03:36:40.870Z,11.70
2018-12-19T03:39:09.207Z,11.43
2018-12-19T03:41:37.401Z,11.60
2018-12-19T03:44:05.532Z,11.27
2018-12-19T03:46:33.610Z,10.93
2018-12-19T03:49:01.689Z,10.97
2018-12-19T03:51:29.741Z,11.87
2018-12-19T03:53:57.813Z,11.23
2018-12-19T03:56:25.898Z,11.90
2018-12-19T03:58:54.058Z,12.10
2018-12-19T04:01:22.168Z,11.20
2018-12-19T04:03:50.308Z,12.27
2018-12-19T04:06:18.296Z,10.80
2018-12-19T04:08:46.636Z,10.90
2018-12-19T04:11:15.128Z,11.47
2018-12-19T04:13:43.203Z,11.97
2018-12-19T04:16:11.265Z,12.40
2018-12-19T04:18:39.394Z,11.27
2018-12-19T04:21:07.463Z,11.57
2018-12-19T04:23:35.651Z,11.40
2018-12-19T04:26:04.699Z,10.73
2018-12-19T04:28:32.830Z,11.70
2018-12-19T04:31:00.879Z,11.77
2018-12-19T04:33:28.971Z,12.00
2018-12-19T04:35:57.132Z,14.03
2018-12-19T04:38:25.928Z,12.67
2018-12-19T04:40:53.997Z,11.80
2018-12-19T04:43:22.081Z,11.87
2018-12-19T04:45:50.180Z,12.07
2018-12-19T04:48:18.343Z,16.17
2018-12-19T04:50:46.463Z,12.77
2018-12-19T04:53:14.725Z,13.70
2018-12-19T04:55:42.891Z,14.03
2018-12-19T04:58:11.004Z,15.43
2018-12-19T05:00:39.093Z,10.83
2018-12-19T05:03:07.173Z,11.73
2018-12-19T05:05:35.200Z,27.90
2018-12-19T05:08:03.623Z,14.50
2018-12-19T05:10:31.663Z,28.90
2018-12-19T05:13:01.271Z,13.93
2018-12-19T05:15:29.576Z,17.90
2018-12-19T05:17:57.668Z,13.80
2018-12-19T05:20:25.854Z,13.30
2018-12-19T05:22:54.525Z,12.47
2018-12-19T05:25:22.647Z,31.13
2018-12-19T05:27:50.809Z,13.97
2018-12-19T05:30:24.065Z,12.87
2018-12-19T05:32:52.158Z,18.27
2018-12-19T05:35:20.336Z,14.50
2018-12-19T05:37:48.351Z,15.13
2018-12-19T05:40:19.003Z,16.03
2018-12-19T05:42:46.783Z,19.60
2018-12-19T05:45:14.900Z,22.50
2018-12-19T05:47:42.965Z,15.27
2018-12-19T05:50:17.163Z,14.30
2018-12-19T05:52:45.499Z,16.10
2018-12-19T05:55:13.627Z,14.83
2018-12-19T05:57:41.916Z,17.87
2018-12-19T06:00:10.180Z,17.37
2018-12-19T06:02:38.231Z,14.47
2018-12-19T06:05:06.473Z,12.93
2018-12-19T06:07:34.570Z,13.47
2018-12-19T06:10:02.847Z,20.87
2018-12-19T06:12:31.077Z,29.53
2018-12-19T06:14:59.319Z,23.10
2018-12-19T06:17:27.413Z,17.10
2018-12-19T06:19:55.523Z,16.73
2018-12-19T06:22:23.643Z,17.00
2018-12-19T06:24:51.731Z,12.97
2018-12-19T06:27:23.456Z,13.70
2018-12-19T06:29:57.329Z,12.97
2018-12-19T06:32:25.484Z,13.23
2018-12-19T06:34:53.552Z,13.07
2018-12-19T06:37:21.676Z,14.07
2018-12-19T06:39:49.777Z,12.67
2018-12-19T06:42:17.940Z,13.00
2018-12-19T06:44:47.500Z,14.43
2018-12-19T06:47:15.631Z,12.57
2018-12-19T06:49:43.777Z,11.93
2018-12-19T06:52:11.949Z,12.97
2018-12-19T06:54:40.010Z,13.57
2018-12-19T06:57:09.574Z,13.33
2018-12-19T06:59:37.977Z,13.57
2018-12-19T07:02:06.005Z,11.87
2018-12-19T07:04:34.114Z,13.07
2018-12-19T07:07:02.261Z,11.33
2018-12-19T07:09:39.851Z,12.63
2018-12-19T07:12:08.012Z,12.90
2018-12-19T07:14:40.204Z,13.03
2018-12-19T07:17:08.612Z,12.57
2018-12-19T07:19:36.921Z,13.30
2018-12-19T07:22:05.147Z,13.27
2018-12-19T07:24:33.208Z,13.27
2018-12-19T07:27:01.339Z,13.40
2018-12-19T07:29:29.532Z,14.20
2018-12-19T07:31:57.628Z,14.53
2018-12-19T07:34:25.692Z,12.83
2018-12-19T07:36:53.859Z,12.77
2018-12-19T07:39:22.062Z,14.63
2018-12-19T07:41:50.186Z,12.83
2018-12-19T07:44:18.342Z,13.10
2018-12-19T07:46:46.450Z,13.17
2018-12-19T07:49:14.857Z,12.83
2018-12-19T07:51:43.048Z,13.43
2018-12-19T07:54:11.091Z,13.43
2018-12-19T07:56:39.256Z,13.77
2018-12-19T07:59:12.593Z,13.43
2018-12-19T08:01:40.642Z,13.33
2018-12-19T08:04:09.049Z,14.30
2018-12-19T08:06:37.255Z,12.70
2018-12-19T08:09:07.621Z,13.70
2018-12-19T08:11:36.718Z,13.30
2018-12-19T08:14:05.297Z,14.17
2018-12-19T08:16:33.500Z,13.37
2018-12-19T08:19:01.617Z,14.93
2018-12-19T08:21:29.760Z,15.33
2018-12-19T08:23:57.826Z,17.70
2018-12-19T08:26:26.321Z,14.67
2018-12-19T08:28:54.643Z,19.87
2018-12-19T08:31:23.030Z,22.57
2018-12-19T08:33:51.163Z,14.23
2018-12-19T08:36:19.280Z,14.17
2018-12-19T08:38:47.473Z,13.67
2018-12-19T08:41:15.577Z,14.83
2018-12-19T08:43:43.666Z,23.33
2018-12-19T08:46:14.659Z,17.93
2018-12-19T08:48:41.969Z,14.33
2018-12-19T08:51:10.057Z,17.27
2018-12-19T08:53:38.291Z,15.90
2018-12-19T08:56:06.491Z,14.00
2018-12-19T08:58:34.690Z,14.77
2018-12-19T09:01:16.648Z,13.83
2018-12-19T09:03:44.888Z,14.90
2018-12-19T09:06:13.076Z,13.90
2018-12-19T09:08:41.121Z,14.43
2018-12-19T09:11:09.233Z,14.87
2018-12-19T09:13:37.351Z,14.50
2018-12-19T09:16:05.422Z,15.10
2018-12-19T09:18:33.546Z,15.43
2018-12-19T09:21:01.694Z,15.07
2018-12-19T09:23:29.847Z,15.63
2018-12-19T09:25:57.910Z,14.87
2018-12-19T09:28:26.074Z,16.17
2018-12-19T09:30:54.753Z,15.07
2018-12-19T09:33:27.350Z,16.30
2018-12-19T09:35:52.958Z,14.80
2018-12-19T09:38:21.079Z,15.77
2018-12-19T09:40:49.207Z,14.90
2018-12-19T09:43:17.279Z,15.83
2018-12-19T09:45:45.385Z,15.70
2018-12-19T09:48:13.587Z,15.43
2018-12-19T09:50:42.377Z,16.90
2018-12-19T09:53:10.660Z,17.20
2018-12-19T09:55:38.741Z,15.50
2018-12-19T09:58:06.899Z,15.23
2018-12-19T10:00:35.277Z,15.47
2018-12-19T10:03:03.504Z,16.50
2018-12-19T10:05:31.855Z,16.53
2018-12-19T10:07:59.940Z,14.90
2018-12-19T10:10:30.485Z,14.97
2018-12-19T10:12:58.541Z,15.47
2018-12-19T10:15:26.762Z,15.57
2018-12-19T10:17:54.903Z,15.37
2018-12-19T10:20:52.785Z,16.07
2018-12-19T10:23:21.234Z,15.10
2018-12-19T10:25:53.926Z,14.77
2018-12-19T10:28:27.520Z,17.33
2018-12-19T10:31:00.757Z,16.73
2018-12-19T10:33:28.880Z,16.23
2018-12-19T10:35:57.242Z,16.53
2018-12-19T10:38:25.347Z,15.57
2018-12-19T10:40:53.453Z,16.23
2018-12-19T10:43:21.592Z,16.50
2018-12-19T10:45:50.275Z,16.57
2018-12-19T10:48:18.416Z,16.37
2018-12-19T10:50:46.592Z,16.33
2018-12-19T10:53:14.622Z,17.20
2018-12-19T10:55:42.810Z,17.77
2018-12-19T10:58:10.982Z,16.17
2018-12-19T11:00:44.746Z,16.40
2018-12-19T11:03:12.865Z,17.37
2018-12-19T11:05:41.109Z,16.33
2018-12-19T11:08:09.258Z,17.03
2018-12-19T11:10:37.465Z,16.10
2018-12-19T11:13:05.529Z,17.07
2018-12-19T11:15:34.747Z,18.20
2018-12-19T11:18:02.878Z,16.67
2018-12-19T11:20:40.469Z,19.17
2018-12-19T11:23:08.580Z,17.40
2018-12-19T11:25:37.270Z,18.53
2018-12-19T11:28:05.353Z,16.43
2018-12-19T11:30:33.427Z,16.47
2018-12-19T11:33:01.501Z,16.57
2018-12-19T11:35:29.611Z,17.10
2018-12-19T11:37:57.702Z,18.33
2018-12-19T11:40:25.750Z,18.03
2018-12-19T11:42:53.895Z,17.60
2018-12-19T11:45:21.997Z,17.53
2018-12-19T11:47:50.147Z,15.43
2018-12-19T11:50:18.217Z,18.03
2018-12-19T11:52:46.332Z,17.20
2018-12-19T11:55:14.393Z,18.17
2018-12-19T11:57:43.067Z,17.67
2018-12-19T12:00:11.407Z,16.53
2018-12-19T12:02:39.566Z,17.67
2018-12-19T12:05:07.752Z,17.70
2018-12-19T12:07:36.104Z,17.53
2018-12-19T12:10:06.018Z,18.30
2018-12-19T12:12:34.134Z,17.83
2018-12-19T12:15:02.253Z,17.97
2018-12-19T12:17:30.409Z,17.87
2018-12-19T12:20:12.742Z,17.37
2018-12-19T12:22:41.274Z,18.30
2018-12-19T12:25:09.677Z,17.57
2018-12-19T12:27:37.858Z,18.70
2018-12-19T12:30:06.524Z,18.33
2018-12-19T12:32:36.800Z,18.63
2018-12-19T12:35:06.626Z,18.57
2018-12-19T12:37:34.820Z,17.53
2018-12-19T12:40:03.310Z,18.47
2018-12-19T12:42:31.411Z,19.17
2018-12-19T12:45:00.055Z,17.80
2018-12-19T12:47:28.285Z,19.30
2018-12-19T12:49:56.477Z,20.00
2018-12-19T12:52:24.583Z,19.77
2018-12-19T12:54:52.709Z,18.60
2018-12-19T12:57:26.682Z,22.77
2018-12-19T12:59:54.893Z,19.90
2018-12-19T13:02:22.983Z,22.37
2018-12-19T13:04:51.146Z,19.30
2018-12-19T13:07:20.075Z,24.63
2018-12-19T13:09:48.105Z,23.93
2018-12-19T13:12:16.112Z,21.33
2018-12-19T13:14:44.255Z,19.33
2018-12-19T13:17:12.362Z,20.43
2018-12-19T13:19:40.588Z,24.40
2018-12-19T13:22:08.758Z,21.93
2018-12-19T13:24:36.864Z,20.53
2018-12-19T13:27:05.362Z,25.20
2018-12-19T13:29:34.128Z,18.80
2018-12-19T13:32:02.470Z,23.63
2018-12-19T13:34:30.610Z,21.03
2018-12-19T13:36:58.811Z,23.10
2018-12-19T13:39:26.991Z,24.47
2018-12-19T13:41:55.047Z,20.87
2018-12-19T13:44:23.199Z,20.53
2018-12-19T13:46:51.364Z,21.00
2018-12-19T13:49:19.589Z,19.60
2018-12-19T13:51:48.140Z,21.03
2018-12-19T13:54:16.318Z,23.80
2018-12-19T13:56:44.719Z,19.67
2018-12-19T13:59:16.406Z,20.77
2018-12-19T14:01:44.602Z,20.77
2018-12-19T14:04:12.792Z,20.80
2018-12-19T14:06:40.988Z,22.27
2018-12-19T14:09:18.998Z,20.23
2018-12-19T14:11:47.252Z,21.10
2018-12-19T14:14:15.405Z,19.83
2018-12-19T14:16:43.584Z,21.87
2018-12-19T14:19:11.722Z,21.97
2018-12-19T14:21:39.924Z,23.83
2018-12-19T14:24:08.120Z,19.33
2018-12-19T14:26:36.229Z,24.80
2018-12-19T14:29:04.433Z,21.43
2018-12-19T14:31:32.504Z,21.57
2018-12-19T14:34:00.687Z,21.03
2018-12-19T14:36:28.823Z,22.33
2018-12-19T14:38:56.889Z,21.13
2018-12-19T14:41:24.990Z,21.77
2018-12-19T14:43:53.091Z,21.57
2018-12-19T14:46:21.924Z,20.73
2018-12-19T14:48:50.012Z,22.13
2018-12-19T14:51:18.150Z,23.20
2018-12-19T14:53:46.254Z,22.80
2018-12-19T14:56:15.296Z,21.03
2018-12-19T14:58:43.461Z,21.87
2018-12-19T15:01:11.686Z,21.03
2018-12-19T15:03:39.826Z,20.43
2018-12-19T15:06:07.850Z,20.83
2018-12-19T15:08:35.979Z,20.83
2018-12-19T15:11:04.466Z,21.17
2018-12-19T15:13:32.534Z,21.60
2018-12-19T15:16:02.080Z,22.93
2018-12-19T15:18:30.587Z,23.83
2018-12-19T15:21:12.603Z,25.87
2018-12-19T15:23:40.751Z,28.27
2018-12-19T15:26:08.905Z,28.20
2018-12-19T15:28:37.036Z,26.67
2018-12-19T15:31:05.232Z,22.80
2018-12-19T15:33:33.485Z,24.97
2018-12-19T15:36:01.743Z,22.67
2018-12-19T15:38:29.893Z,19.87
2018-12-19T15:41:03.117Z,24.50
2018-12-19T15:43:42.782Z,24.20
2018-12-19T15:46:10.885Z,28.43
2018-12-19T15:48:38.989Z,30.10
2018-12-19T15:51:07.276Z,27.03
2018-12-19T15:53:35.363Z,26.27
2018-12-19T15:56:03.449Z,24.47
2018-12-19T15:58:31.565Z,27.57
2018-12-19T16:00:59.749Z,35.73
2018-12-19T16:03:28.266Z,35.83
2018-12-19T16:05:56.587Z,25.80
2018-12-19T16:08:24.781Z,27.07
2018-12-19T16:10:52.959Z,23.57
2018-12-19T16:13:24.241Z,23.33
2018-12-19T16:15:52.484Z,24.97
2018-12-19T16:18:21.111Z,24.30
2018-12-19T16:21:00.436Z,21.43
2018-12-19T16:23:28.638Z,23.30
2018-12-19T16:25:56.752Z,23.70
2018-12-19T16:28:24.863Z,23.40
2018-12-19T16:30:52.882Z,21.13
2018-12-19T16:33:21.042Z,22.47
2018-12-19T16:35:49.195Z,20.13
2018-12-19T16:38:22.018Z,19.83
2018-12-19T16:41:13.333Z,22.97
2018-12-19T16:43:43.922Z,20.33
2018-12-19T16:46:20.585Z,19.30
2018-12-19T16:48:50.702Z,19.23
2018-12-19T16:51:18.863Z,18.20
2018-12-19T16:53:47.026Z,18.83
2018-12-19T16:56:15.087Z,18.73
2018-12-19T16:58:43.254Z,19.13
2018-12-19T17:01:11.442Z,19.67
2018-12-19T17:03:39.691Z,18.57
2018-12-19T17:06:14.583Z,20.43
2018-12-19T17:08:44.831Z,20.27
2018-12-19T17:11:15.875Z,18.30
2018-12-19T17:13:44.354Z,20.30
2018-12-19T17:16:12.481Z,19.77
2018-12-19T17:18:40.552Z,19.17
2018-12-19T17:21:18.966Z,19.73
2018-12-19T17:23:47.061Z,19.20
2018-12-19T17:26:15.282Z,19.47
2018-12-19T17:28:43.472Z,19.73
2018-12-19T17:31:11.576Z,20.13
2018-12-19T17:33:50.488Z,25.43
2018-12-19T17:36:18.668Z,22.03
2018-12-19T17:38:46.814Z,24.43
2018-12-19T17:41:15.055Z,27.03
2018-12-19T17:43:52.834Z,22.23
2018-12-19T17:46:20.997Z,20.03
2018-12-19T17:48:49.136Z,19.20
2018-12-19T17:51:17.173Z,19.13
2018-12-19T17:53:45.255Z,19.30
2018-12-19T17:56:13.433Z,20.73
2018-12-19T17:58:41.534Z,17.40
2018-12-19T18:01:09.637Z,19.10
2018-12-19T18:03:37.842Z,18.83
2018-12-19T18:06:06.018Z,20.63
2018-12-19T18:08:34.225Z,20.47
2018-12-19T18:14:02.310Z,21.47
2018-12-19T18:16:30.625Z,19.83
2018-12-19T18:19:08.230Z,20.17
2018-12-19T18:21:36.700Z,19.77
2018-12-19T18:24:04.826Z,20.40
2018-12-19T18:26:33.121Z,21.63
2018-12-19T18:29:01.517Z,21.33
2018-12-19T18:31:29.669Z,22.97
2018-12-19T18:33:58.042Z,23.73
2018-12-19T18:36:26.300Z,20.40
2018-12-19T18:38:54.619Z,20.67
2018-12-19T18:41:22.740Z,21.50
2018-12-19T18:43:50.892Z,21.77
2018-12-19T18:46:19.178Z,20.97
2018-12-19T18:48:47.288Z,21.30
2018-12-19T18:51:15.422Z,20.83
2018-12-19T18:53:43.606Z,21.13
2018-12-19T18:56:11.807Z,19.60
2018-12-19T18:58:39.997Z,19.13
2018-12-19T19:01:08.436Z,19.10
2018-12-19T19:03:36.838Z,19.93
2018-12-19T19:06:05.074Z,19.90
2018-12-19T19:08:33.369Z,20.43
2018-12-19T19:11:01.559Z,23.83
2018-12-19T19:13:29.693Z,22.63
2018-12-19T19:15:58.599Z,21.97
2018-12-19T19:18:27.527Z,22.97
2018-12-19T19:20:56.356Z,20.00
2018-12-19T19:23:30.874Z,21.30
2018-12-19T19:26:00.769Z,23.63
2018-12-19T19:28:31.867Z,21.23
2018-12-19T19:31:05.774Z,19.47
2018-12-19T19:33:34.725Z,19.30
2018-12-19T19:36:03.709Z,19.53
2018-12-19T19:38:32.580Z,21.67
2018-12-19T19:41:01.767Z,22.33
2018-12-19T19:43:30.733Z,21.00
2018-12-19T19:45:59.313Z,21.47
2018-12-19T19:48:28.207Z,23.70
2018-12-19T19:50:56.983Z,39.27
2018-12-19T19:53:26.078Z,20.67
2018-12-19T19:55:55.207Z,21.60
2018-12-19T19:58:24.092Z,21.00
2018-12-19T20:00:53.264Z,20.37
2018-12-19T20:03:22.275Z,21.07
2018-12-19T20:05:51.478Z,20.40
2018-12-19T20:08:20.204Z,20.57
2018-12-19T20:10:49.281Z,19.47
2018-12-19T20:13:18.123Z,20.70
2018-12-19T20:15:46.833Z,20.77
2018-12-19T20:18:16.930Z,21.03
2018-12-19T20:20:45.957Z,20.80
2018-12-19T20:23:14.784Z,20.13
2018-12-19T20:25:43.494Z,19.90
2018-12-19T20:28:12.390Z,21.37
2018-12-19T20:30:54.880Z,20.07
2018-12-19T20:33:23.708Z,19.33
2018-12-19T20:35:52.458Z,19.10
2018-12-19T20:38:21.339Z,18.97
2018-12-19T20:40:49.408Z,19.83
2018-12-19T20:43:17.662Z,20.87
2018-12-19T20:45:45.871Z,20.37
2018-12-19T20:48:14.205Z,18.83
2018-12-19T20:50:42.544Z,20.63
2018-12-19T20:53:10.817Z,20.50
2018-12-19T20:55:39.087Z,20.73
2018-12-19T20:58:07.303Z,19.80
2018-12-19T21:00:35.539Z,19.97
2018-12-19T21:03:03.915Z,19.83
2018-12-19T21:05:33.091Z,21.27
2018-12-19T21:08:01.262Z,21.80
2018-12-19T21:10:29.395Z,21.10
2018-12-19T21:12:57.793Z,22.13
2018-12-19T21:15:26.075Z,33.60
2018-12-19T21:18:00.034Z,28.97
2018-12-19T21:20:28.111Z,21.20
2018-12-19T21:22:56.462Z,21.50
2018-12-19T21:28:03.683Z,23.67
2018-12-19T21:30:32.029Z,22.13
2018-12-19T21:33:13.819Z,22.90
2018-12-19T21:35:38.458Z,22.23
2018-12-19T21:38:07.609Z,21.60
2018-12-19T21:40:49.902Z,21.70
2018-12-19T21:43:18.085Z,22.50
2018-12-19T21:45:51.811Z,22.23
2018-12-19T21:48:16.396Z,20.90
2018-12-19T21:50:44.567Z,20.77
2018-12-19T21:53:13.697Z,21.13
2018-12-19T21:55:41.973Z,22.73
2018-12-19T21:58:10.211Z,22.27
2018-12-19T22:00:39.894Z,22.30
2018-12-19T22:03:08.778Z,21.27
2018-12-19T22:05:39.038Z,20.93
2018-12-19T22:08:07.220Z,23.67
2018-12-19T22:10:35.532Z,22.83
2018-12-19T22:13:03.931Z,20.73
2018-12-19T22:15:32.210Z,21.90
2018-12-19T22:18:05.963Z,23.83
2018-12-19T22:20:34.335Z,23.77
2018-12-19T22:23:02.428Z,23.97
2018-12-19T22:25:30.735Z,22.17
2018-12-19T22:27:58.945Z,22.97
2018-12-19T22:30:27.079Z,22.67
2018-12-19T22:32:55.398Z,21.80
2018-12-19T22:35:23.539Z,21.77
2018-12-19T22:37:51.748Z,20.17
2018-12-19T22:40:19.978Z,20.17
2018-12-19T22:42:48.142Z,19.00
2018-12-19T22:45:16.466Z,20.10
2018-12-19T22:47:44.655Z,19.70
2018-12-19T22:50:12.757Z,20.53
2018-12-19T22:52:41.007Z,22.90
2018-12-19T22:55:10.096Z,18.53
2018-12-19T22:57:38.263Z,19.50
2018-12-19T23:00:15.950Z,18.93
2018-12-19T23:02:50.991Z,17.37
2018-12-19T23:05:25.357Z,17.23
2018-12-19T23:07:53.532Z,16.80
2018-12-19T23:13:21.918Z,17.57
2018-12-19T23:15:50.088Z,18.57
2018-12-19T23:18:23.633Z,18.07
2018-12-19T23:20:52.173Z,17.67
2018-12-19T23:23:20.478Z,18.83
2018-12-19T23:25:48.939Z,18.33
2018-12-19T23:28:17.209Z,18.50
2018-12-19T23:30:59.546Z,18.73
2018-12-19T23:33:27.827Z,19.23
2018-12-19T23:35:56.056Z,16.97
2018-12-19T23:38:24.144Z,17.33
2018-12-19T23:40:52.392Z,17.63
2018-12-19T23:43:20.949Z,18.20
2018-12-19T23:45:49.221Z,17.23
2018-12-19T23:48:17.596Z,17.93
2018-12-19T23:50:45.707Z,17.33
2018-12-19T23:53:14.175Z,19.37
2018-12-19T23:55:42.353Z,17.93
2018-12-19T23:58:10.540Z,18.27
